Zavalla, Texas
Current Conditions -  °F | °C
As of 11:53 AM on Wednesday 28 Jan 2015 (Local Time) from KLFK Reporting Station
Clear Clear  
Wind Chill: 75°   Ceiling: Unl
Heat Index: 75°   Visibility: 10mi
Dew Point: 43°   Wind: 12mph
Humidity: 32%   Direction: 170°S
Pressure: 30.2"   Gusts: 22mph
Location:  31.16°N, 94.43°W
Report Text: KLFK 281753Z AUTO 17010G19KT 10SM CLR 24/06 A3020 RMK AO2 SLP224 T02390061 10239 20061 58002
Loading
Personal Weather Stations






























Interactive Weather Map New forecast layout! Learn more

10-Day Weather Forecast

Advertisements
Track Severe Weather on mobile